Time;durP1;ratioP1;P1;durP2;ratioP2;P2;SDS_P1;SDS_P2;PMS_P1;PMS_P2;Temp;Humidity;BMP_temperature;BMP_pressure;BME280_temperature;BME280_humidity;BME280_pressure;Samples;Min_cycle;Max_cycle;Signal;HPM_P1;HPM_P2
2022/03/04 00:00:47;;;;;;;17.13;10.68;;;1.20;99.90;;;;;;5012176;28;20049;-68
2022/03/04 00:03:13;;;;;;;18.80;12.10;;;1.10;99.90;;;;;;4993198;28;20046;-68
2022/03/04 00:05:42;;;;;;;18.50;11.70;;;1.10;99.90;;;;;;4992802;28;20533;-68
2022/03/04 00:08:08;;;;;;;18.67;11.38;;;1.10;99.90;;;;;;4987160;28;20041;-68
2022/03/04 00:10:34;;;;;;;17.05;11.20;;;1.10;99.90;;;;;;5008839;28;20038;-68
2022/03/04 00:13:01;;;;;;;19.52;11.32;;;1.00;99.90;;;;;;4992282;28;20558;-68
2022/03/04 00:15:26;;;;;;;17.10;10.25;;;1.00;99.90;;;;;;4988676;28;20482;-68
2022/03/04 00:17:52;;;;;;;17.45;10.85;;;1.00;99.90;;;;;;5006387;28;20041;-68
2022/03/04 00:20:18;;;;;;;16.17;10.50;;;1.00;99.90;;;;;;4992444;28;20056;-68
2022/03/04 00:22:44;;;;;;;16.75;10.82;;;1.00;99.90;;;;;;4983564;28;20044;-68
2022/03/04 00:25:10;;;;;;;15.85;10.23;;;0.90;99.90;;;;;;5006996;28;21705;-68
2022/03/04 00:27:36;;;;;;;17.00;10.52;;;0.90;99.90;;;;;;4988072;28;20351;-69
2022/03/04 00:30:03;;;;;;;14.88;9.50;;;0.90;99.90;;;;;;4987645;28;20056;-68
2022/03/04 00:32:29;;;;;;;16.98;11.05;;;0.80;99.90;;;;;;4988849;28;20121;-68
2022/03/04 00:34:55;;;;;;;17.23;10.43;;;0.80;99.90;;;;;;5006257;28;20573;-68
2022/03/04 00:37:21;;;;;;;17.83;10.40;;;0.80;99.90;;;;;;4999524;28;20060;-68
2022/03/04 00:39:46;;;;;;;16.30;10.82;;;0.70;99.90;;;;;;4989817;28;20041;-68
2022/03/04 00:42:12;;;;;;;18.83;11.13;;;0.70;99.90;;;;;;4989159;28;20401;-68
2022/03/04 00:44:38;;;;;;;18.23;9.95;;;0.70;99.90;;;;;;4988902;28;20155;-68
2022/03/04 00:47:07;;;;;;;18.83;10.98;;;0.70;99.90;;;;;;5007569;28;20048;-68
2022/03/04 00:49:34;;;;;;;16.15;10.70;;;0.70;99.90;;;;;;4987914;28;20045;-68
2022/03/04 00:52:00;;;;;;;17.73;10.93;;;0.60;99.90;;;;;;4989090;28;20069;-68
2022/03/04 00:54:26;;;;;;;17.33;11.95;;;0.60;99.90;;;;;;4988332;28;20038;-69
2022/03/04 00:56:52;;;;;;;19.05;11.32;;;0.60;99.90;;;;;;4989186;28;20048;-68
2022/03/04 00:59:18;;;;;;;17.60;11.07;;;0.60;99.90;;;;;;5005456;28;20473;-68
2022/03/04 01:01:43;;;;;;;18.27;11.05;;;0.60;99.90;;;;;;4989692;28;20057;-68
2022/03/04 01:04:09;;;;;;;16.48;10.88;;;0.60;99.90;;;;;;5003318;28;20651;-68
2022/03/04 01:06:35;;;;;;;19.85;11.70;;;0.60;99.90;;;;;;5006379;28;20513;-68
2022/03/04 01:09:01;;;;;;;19.38;10.73;;;0.50;99.90;;;;;;4985533;28;20112;-68
2022/03/04 01:11:27;;;;;;;20.95;11.40;;;0.50;99.90;;;;;;4974913;28;20420;-68
2022/03/04 01:13:53;;;;;;;19.25;11.43;;;0.50;99.90;;;;;;4982907;28;20613;-68
2022/03/04 01:16:18;;;;;;;16.95;11.25;;;0.40;99.90;;;;;;4969036;28;20041;-68
2022/03/04 01:18:44;;;;;;;19.70;11.15;;;0.40;99.90;;;;;;4985849;28;21746;-68
2022/03/04 01:21:10;;;;;;;22.27;11.18;;;0.40;99.90;;;;;;4967404;28;20136;-68
2022/03/04 01:23:35;;;;;;;19.92;12.13;;;0.40;99.90;;;;;;4984463;28;20049;-68
2022/03/04 01:26:01;;;;;;;19.15;11.55;;;0.40;99.90;;;;;;4986670;28;20438;-68
2022/03/04 01:28:27;;;;;;;19.85;11.52;;;0.30;99.90;;;;;;4983729;28;20061;-68
2022/03/04 01:30:53;;;;;;;19.42;11.55;;;0.30;99.90;;;;;;4983236;28;20051;-68
2022/03/04 01:33:19;;;;;;;20.67;11.38;;;0.30;99.90;;;;;;4984484;28;20046;-68
2022/03/04 01:35:45;;;;;;;19.58;12.68;;;0.30;99.90;;;;;;4985182;28;20389;-68
2022/03/04 01:38:11;;;;;;;19.88;12.10;;;0.30;99.90;;;;;;4986059;28;20149;-68
2022/03/04 01:40:37;;;;;;;20.40;12.18;;;0.20;99.90;;;;;;4986579;28;20471;-68
2022/03/04 01:43:03;;;;;;;18.80;12.30;;;0.20;99.90;;;;;;4984877;28;20064;-68
2022/03/04 01:45:28;;;;;;;18.75;11.82;;;0.20;99.90;;;;;;4983044;28;20178;-68
2022/03/04 01:47:54;;;;;;;22.08;12.27;;;0.20;99.90;;;;;;4981812;28;20034;-68
2022/03/04 01:50:20;;;;;;;22.30;12.82;;;0.20;99.90;;;;;;4983434;28;20078;-68
2022/03/04 01:52:46;;;;;;;20.33;11.77;;;0.20;99.90;;;;;;4984760;28;20072;-68
2022/03/04 01:55:11;;;;;;;20.42;11.55;;;0.10;99.90;;;;;;5001388;28;20117;-68
2022/03/04 01:57:37;;;;;;;22.05;12.77;;;0.10;99.90;;;;;;4986102;28;20098;-68
2022/03/04 02:00:08;;;;;;;22.90;12.45;;;0.10;99.90;;;;;;4984045;28;20123;-68
2022/03/04 02:02:34;;;;;;;20.95;12.18;;;0.10;99.90;;;;;;4983823;28;20047;-68
2022/03/04 02:04:59;;;;;;;19.63;11.77;;;0.00;99.90;;;;;;4986139;28;20478;-68
2022/03/04 02:07:25;;;;;;;24.65;13.77;;;0.00;99.90;;;;;;4985020;28;20050;-68
2022/03/04 02:09:51;;;;;;;21.98;13.43;;;0.00;99.90;;;;;;4986132;28;20047;-68
2022/03/04 02:12:16;;;;;;;25.25;13.82;;;0.00;99.90;;;;;;4986267;28;20494;-68
2022/03/04 02:14:42;;;;;;;26.77;12.35;;;0.00;99.90;;;;;;4996190;28;20043;-68
2022/03/04 02:17:08;;;;;;;22.67;13.23;;;-0.10;99.90;;;;;;4983365;28;20125;-68
2022/03/04 02:19:34;;;;;;;23.60;13.02;;;-0.10;99.90;;;;;;5002468;28;20081;-68
2022/03/04 02:22:01;;;;;;;22.00;13.73;;;-0.10;99.90;;;;;;4983760;28;20465;-69
2022/03/04 02:24:30;;;;;;;23.52;13.98;;;-0.10;99.90;;;;;;4999369;28;20093;-69
2022/03/04 02:26:57;;;;;;;22.00;13.13;;;-0.10;99.90;;;;;;4983347;28;20387;-69
2022/03/04 02:29:24;;;;;;;22.70;12.88;;;-0.10;99.90;;;;;;4985915;28;20035;-69
2022/03/04 02:31:50;;;;;;;22.85;14.60;;;-0.20;99.90;;;;;;4999896;28;20035;-69
2022/03/04 02:34:17;;;;;;;24.35;14.18;;;-0.10;99.90;;;;;;4987474;28;20030;-68
2022/03/04 02:36:44;;;;;;;25.05;14.30;;;-0.20;99.90;;;;;;4999693;28;20038;-69
2022/03/04 02:39:10;;;;;;;26.27;15.05;;;-0.20;99.90;;;;;;4985777;28;20047;-68
2022/03/04 02:41:36;;;;;;;25.13;14.52;;;-0.20;99.90;;;;;;4985666;28;20046;-69
2022/03/04 02:44:07;;;;;;;24.88;14.68;;;-0.20;99.90;;;;;;4985029;28;20038;-69
2022/03/04 02:46:33;;;;;;;28.52;15.75;;;-0.30;99.90;;;;;;4984071;28;20069;-68
2022/03/04 02:48:59;;;;;;;29.38;15.75;;;-0.30;99.90;;;;;;4986355;28;20410;-68
2022/03/04 02:51:25;;;;;;;26.15;16.15;;;-0.30;99.90;;;;;;4982682;28;20054;-68
2022/03/04 02:53:51;;;;;;;24.48;15.07;;;-0.30;99.90;;;;;;4996088;28;20402;-68
2022/03/04 02:56:17;;;;;;;27.90;15.80;;;-0.30;99.90;;;;;;4986318;28;20049;-69
2022/03/04 02:58:43;;;;;;;28.02;15.70;;;-0.30;99.90;;;;;;4981867;28;20031;-69
2022/03/04 03:01:09;;;;;;;29.08;17.40;;;-0.30;99.90;;;;;;4984478;28;20038;-69
2022/03/04 03:03:35;;;;;;;27.08;16.88;;;-0.30;99.90;;;;;;4980215;28;20043;-69
2022/03/04 03:06:01;;;;;;;27.27;17.13;;;-0.40;99.90;;;;;;5001165;28;20137;-69
2022/03/04 03:08:28;;;;;;;30.13;16.95;;;-0.40;99.90;;;;;;4983157;28;20050;-69
2022/03/04 03:10:54;;;;;;;31.20;17.60;;;-0.40;99.90;;;;;;5003905;28;20665;-69
2022/03/04 03:13:20;;;;;;;30.65;16.95;;;-0.50;99.90;;;;;;4984982;28;20049;-69
2022/03/04 03:15:47;;;;;;;30.13;17.77;;;-0.50;99.90;;;;;;5003755;28;20449;-69
2022/03/04 03:18:12;;;;;;;33.35;17.48;;;-0.50;99.90;;;;;;4990937;28;20491;-69
2022/03/04 03:20:38;;;;;;;32.88;17.67;;;-0.50;99.90;;;;;;4991913;28;20077;-69
2022/03/04 03:23:05;;;;;;;33.05;17.42;;;-0.50;99.90;;;;;;5003517;28;20050;-69
2022/03/04 03:25:30;;;;;;;29.98;16.17;;;-0.50;99.90;;;;;;5008190;28;20050;-69
2022/03/04 03:27:56;;;;;;;35.35;17.83;;;-0.50;99.90;;;;;;4990598;28;20116;-69
2022/03/04 03:30:22;;;;;;;30.65;17.23;;;-0.60;99.90;;;;;;4987818;28;20042;-69
2022/03/04 03:32:48;;;;;;;29.67;16.95;;;-0.60;99.90;;;;;;5007748;28;20030;-69
2022/03/04 03:35:13;;;;;;;28.65;16.48;;;-0.60;99.90;;;;;;4990169;28;20455;-69
2022/03/04 03:37:39;;;;;;;27.70;16.95;;;-0.60;99.90;;;;;;4987787;28;20114;-69
2022/03/04 03:40:09;;;;;;;29.75;16.60;;;-0.60;99.90;;;;;;4991118;28;20053;-69
2022/03/04 03:42:35;;;;;;;33.03;18.73;;;-0.60;99.90;;;;;;5010955;28;21757;-69
2022/03/04 03:45:01;;;;;;;31.13;19.13;;;-0.70;99.90;;;;;;4984723;28;20061;-69
2022/03/04 03:47:27;;;;;;;28.98;17.38;;;-0.70;99.90;;;;;;4990173;28;20057;-69
2022/03/04 03:49:52;;;;;;;31.45;18.33;;;-0.70;99.90;;;;;;5008381;28;20128;-69
2022/03/04 03:52:18;;;;;;;31.83;18.58;;;-0.70;99.90;;;;;;4990042;28;20390;-69
2022/03/04 03:54:44;;;;;;;31.08;19.10;;;-0.80;99.90;;;;;;5004029;28;20038;-69
2022/03/04 03:57:10;;;;;;;30.40;17.92;;;-0.80;99.90;;;;;;4990293;28;20049;-69
2022/03/04 03:59:36;;;;;;;32.25;18.73;;;-0.90;99.90;;;;;;5004196;28;20517;-69
2022/03/04 04:02:03;;;;;;;29.42;17.88;;;-0.90;99.90;;;;;;5004466;28;20113;-69
2022/03/04 04:04:34;;;;;;;29.27;16.85;;;-0.90;99.90;;;;;;5009176;28;20056;-69
2022/03/04 04:07:10;;;;;;;30.05;16.52;;;-0.90;99.90;;;;;;4987864;28;20477;-69
2022/03/04 04:09:36;;;;;;;29.83;17.63;;;-1.00;99.90;;;;;;4989797;28;20038;-69
2022/03/04 04:12:03;;;;;;;32.92;19.42;;;-1.00;99.90;;;;;;5007655;28;20053;-69
2022/03/04 04:14:28;;;;;;;33.70;18.42;;;-1.10;99.90;;;;;;4988445;28;20132;-69
2022/03/04 04:16:55;;;;;;;31.05;19.42;;;-1.10;99.90;;;;;;4985506;28;20161;-69
2022/03/04 04:19:21;;;;;;;32.80;19.15;;;-1.10;99.90;;;;;;4992547;28;20038;-69
2022/03/04 04:21:47;;;;;;;34.20;19.98;;;-1.10;99.90;;;;;;4993596;28;20049;-69
2022/03/04 04:24:12;;;;;;;37.05;20.92;;;-1.20;99.90;;;;;;5007992;28;20057;-69
2022/03/04 04:26:38;;;;;;;38.92;20.67;;;-1.20;99.90;;;;;;4989207;28;20045;-69
2022/03/04 04:29:04;;;;;;;44.00;22.83;;;-1.20;99.90;;;;;;5009319;28;20042;-69
2022/03/04 04:31:32;;;;;;;41.65;21.30;;;-1.30;99.90;;;;;;4984011;28;20146;-69
2022/03/04 04:33:59;;;;;;;40.53;22.60;;;-1.30;99.90;;;;;;4989893;28;20045;-69
2022/03/04 04:36:25;;;;;;;41.45;22.80;;;-1.30;99.90;;;;;;4992959;28;20076;-69
2022/03/04 04:38:51;;;;;;;40.88;21.73;;;-1.30;99.90;;;;;;4990674;28;20037;-69
2022/03/04 04:41:17;;;;;;;44.50;22.88;;;-1.20;99.90;;;;;;4992560;28;20050;-69
2022/03/04 04:43:43;;;;;;;44.47;24.02;;;-1.20;99.90;;;;;;5009870;28;20038;-69
2022/03/04 04:46:09;;;;;;;45.78;24.17;;;-1.30;99.90;;;;;;4989699;28;20513;-68
2022/03/04 04:48:34;;;;;;;50.28;24.65;;;-1.30;99.90;;;;;;5004272;28;20529;-69
2022/03/04 04:51:00;;;;;;;41.47;23.83;;;-1.30;99.90;;;;;;4992518;28;20049;-69
2022/03/04 04:53:29;;;;;;;52.03;25.58;;;-1.30;99.90;;;;;;5000352;28;20060;-69
2022/03/04 04:55:55;;;;;;;47.75;24.60;;;-1.30;99.90;;;;;;4989495;28;20042;-69
2022/03/04 04:58:21;;;;;;;48.47;24.83;;;-1.30;99.90;;;;;;4989081;28;20068;-69
2022/03/04 05:00:53;;;;;;;50.53;26.90;;;-1.20;99.90;;;;;;5003234;28;20494;-69
2022/03/04 05:03:26;;;;;;;45.80;25.38;;;-1.20;99.90;;;;;;5005106;28;20042;-69
2022/03/04 05:05:53;;;;;;;49.28;25.00;;;-1.20;99.90;;;;;;4996103;28;20044;-69
2022/03/04 05:08:20;;;;;;;51.28;25.80;;;-1.30;99.90;;;;;;4991294;28;20041;-70
2022/03/04 05:10:46;;;;;;;55.25;27.60;;;-1.30;99.90;;;;;;4970850;28;20128;-70
2022/03/04 05:13:11;;;;;;;50.67;25.98;;;-1.20;99.90;;;;;;5005406;28;20466;-70
2022/03/04 05:15:38;;;;;;;49.35;27.08;;;-1.20;99.90;;;;;;4986854;28;20054;-70
2022/03/04 05:18:04;;;;;;;51.80;25.50;;;-1.20;99.90;;;;;;4984990;28;20069;-70
2022/03/04 05:20:30;;;;;;;51.88;26.30;;;-1.20;99.90;;;;;;4985803;28;20391;-70
2022/03/04 05:22:56;;;;;;;46.28;24.20;;;-1.20;99.90;;;;;;5000798;28;20422;-69
2022/03/04 05:25:22;;;;;;;50.50;25.52;;;-1.20;99.90;;;;;;4985927;28;20080;-69
2022/03/04 05:27:47;;;;;;;48.47;27.02;;;-1.20;99.90;;;;;;4981627;28;20040;-69
2022/03/04 05:30:14;;;;;;;47.55;26.40;;;-1.10;99.90;;;;;;4985602;28;20073;-69
2022/03/04 05:32:39;;;;;;;46.38;26.33;;;-1.10;99.90;;;;;;4981731;28;20177;-69
2022/03/04 05:35:06;;;;;;;47.72;26.20;;;-1.20;99.90;;;;;;4982211;28;20180;-69
2022/03/04 05:37:32;;;;;;;50.78;27.00;;;-1.20;99.90;;;;;;4997077;28;20038;-70
2022/03/04 05:39:58;;;;;;;43.00;24.77;;;-1.20;99.90;;;;;;4998437;28;20034;-70
2022/03/04 05:42:24;;;;;;;45.25;25.38;;;-1.10;99.90;;;;;;4984385;28;20049;-70
2022/03/04 05:44:49;;;;;;;52.80;26.75;;;-1.10;99.90;;;;;;4985950;28;20502;-70
2022/03/04 05:47:15;;;;;;;46.22;24.17;;;-1.10;99.90;;;;;;4984374;28;20062;-70
2022/03/04 05:49:41;;;;;;;51.95;26.98;;;-1.10;99.90;;;;;;4985371;28;20576;-70
2022/03/04 05:52:06;;;;;;;51.03;25.98;;;-1.00;99.90;;;;;;5000091;28;20523;-70
2022/03/04 05:54:32;;;;;;;55.15;28.10;;;-1.00;99.90;;;;;;4986661;28;20030;-70
2022/03/04 05:56:58;;;;;;;51.35;28.02;;;-1.10;99.90;;;;;;4984257;28;20466;-70
2022/03/04 05:59:24;;;;;;;52.80;27.30;;;-1.10;99.90;;;;;;4987265;28;20089;-70
2022/03/04 06:01:50;;;;;;;47.75;26.55;;;-1.10;99.90;;;;;;4986283;28;20050;-70
2022/03/04 06:04:17;;;;;;;48.28;26.27;;;-1.00;99.90;;;;;;4968210;28;20057;-70
2022/03/04 06:06:43;;;;;;;49.05;27.00;;;-1.00;99.90;;;;;;5001522;28;20046;-71
2022/03/04 06:09:08;;;;;;;47.08;27.02;;;-1.00;99.90;;;;;;4984750;28;20062;-71
2022/03/04 06:11:34;;;;;;;57.50;27.63;;;-1.00;99.90;;;;;;4989234;28;20406;-70
2022/03/04 06:14:00;;;;;;;48.25;24.85;;;-1.10;99.90;;;;;;4993175;28;20711;-70
2022/03/04 06:16:26;;;;;;;44.30;26.50;;;-1.00;99.90;;;;;;4982888;28;20506;-70
2022/03/04 06:18:52;;;;;;;45.42;23.30;;;-1.00;99.90;;;;;;4998226;28;20499;-71
2022/03/04 06:21:18;;;;;;;43.85;24.30;;;-1.10;99.90;;;;;;4998231;28;20173;-71
2022/03/04 06:23:44;;;;;;;44.33;23.80;;;-1.10;99.90;;;;;;4978306;28;20070;-71
2022/03/04 06:26:10;;;;;;;48.65;26.30;;;-1.10;99.90;;;;;;4980515;28;20051;-71
2022/03/04 06:28:36;;;;;;;49.83;27.17;;;-1.10;99.90;;;;;;4983058;28;20692;-71
2022/03/04 06:31:03;;;;;;;47.58;25.23;;;-1.10;99.90;;;;;;4986543;28;20041;-71
2022/03/04 06:33:32;;;;;;;43.50;26.58;;;-1.10;99.90;;;;;;4987110;28;20074;-71
2022/03/04 06:36:06;;;;;;;44.70;25.13;;;-1.10;99.90;;;;;;4988431;28;20046;-71
2022/03/04 06:38:34;;;;;;;46.78;25.00;;;-1.10;99.90;;;;;;4992977;28;20567;-71
2022/03/04 06:41:00;;;;;;;46.63;26.50;;;-1.10;99.90;;;;;;4989009;28;20074;-71
2022/03/04 06:43:25;;;;;;;43.25;24.85;;;-1.00;99.90;;;;;;5003581;28;20055;-71
2022/03/04 06:45:51;;;;;;;50.75;26.15;;;-1.00;99.90;;;;;;4986062;28;20042;-71
2022/03/04 06:48:18;;;;;;;49.60;26.55;;;-1.00;99.90;;;;;;4974482;28;20051;-71
2022/03/04 06:50:45;;;;;;;53.10;26.85;;;-1.10;99.90;;;;;;5010809;28;20046;-71
2022/03/04 06:53:11;;;;;;;48.70;25.50;;;-1.00;99.90;;;;;;5011796;28;20082;-71
2022/03/04 06:55:37;;;;;;;48.60;25.90;;;-1.00;99.90;;;;;;4991188;28;20074;-71
2022/03/04 06:58:03;;;;;;;48.22;26.23;;;-1.00;99.90;;;;;;4990410;28;20177;-70
2022/03/04 07:00:29;;;;;;;55.33;26.73;;;-1.00;99.90;;;;;;5005774;28;20054;-70
2022/03/04 07:02:55;;;;;;;51.50;26.65;;;-1.00;99.90;;;;;;5000865;28;20486;-71
2022/03/04 07:05:22;;;;;;;51.78;26.70;;;-1.00;99.90;;;;;;4994444;28;20049;-71
2022/03/04 07:07:52;;;;;;;55.00;29.25;;;-1.00;99.90;;;;;;5010196;28;20130;-71
2022/03/04 07:10:18;;;;;;;47.85;25.52;;;-1.00;99.90;;;;;;4986845;28;20101;-71
2022/03/04 07:12:45;;;;;;;49.38;25.65;;;-1.00;99.90;;;;;;5003891;28;20134;-71
2022/03/04 07:15:12;;;;;;;49.35;26.40;;;-1.00;99.90;;;;;;4983198;28;20142;-71
2022/03/04 07:17:38;;;;;;;44.65;25.05;;;-1.00;99.90;;;;;;4982777;28;20050;-70
2022/03/04 07:20:05;;;;;;;53.60;27.52;;;-0.90;99.90;;;;;;4981936;28;20462;-71
2022/03/04 07:22:31;;;;;;;44.25;25.48;;;-0.80;99.90;;;;;;4989303;28;20042;-71
2022/03/04 07:24:57;;;;;;;44.55;25.30;;;-0.80;99.90;;;;;;4986175;28;20048;-70
2022/03/04 07:27:22;;;;;;;44.53;25.75;;;-0.80;99.90;;;;;;5001634;28;21326;-71
2022/03/04 07:29:48;;;;;;;41.20;24.70;;;-0.80;99.90;;;;;;4983616;28;20058;-70
2022/03/04 07:32:14;;;;;;;41.70;25.15;;;-0.70;99.90;;;;;;4987134;28;20117;-70
2022/03/04 07:34:39;;;;;;;37.67;23.75;;;-0.70;99.90;;;;;;4988781;28;20053;-70
2022/03/04 07:37:05;;;;;;;39.97;24.52;;;-0.70;99.90;;;;;;4986261;28;20673;-71
2022/03/04 07:39:32;;;;;;;38.00;23.90;;;-0.70;99.90;;;;;;4984289;28;20397;-70
2022/03/04 07:41:57;;;;;;;41.67;26.17;;;-0.80;99.90;;;;;;4985700;28;20632;-70
2022/03/04 07:44:23;;;;;;;41.35;23.40;;;-0.80;99.90;;;;;;4990859;28;20050;-70
2022/03/04 07:46:50;;;;;;;46.65;24.38;;;-0.80;99.90;;;;;;4997549;28;20080;-70
2022/03/04 07:49:16;;;;;;;40.08;23.88;;;-0.70;99.90;;;;;;4982395;28;20054;-70
2022/03/04 07:51:43;;;;;;;36.08;23.45;;;-0.60;99.90;;;;;;4988968;28;20042;-70
2022/03/04 07:54:09;;;;;;;38.95;23.38;;;-0.60;99.90;;;;;;4987867;28;20495;-70
2022/03/04 07:56:34;;;;;;;37.88;22.25;;;-0.60;99.90;;;;;;4985916;28;20122;-70
2022/03/04 07:59:00;;;;;;;41.45;25.45;;;-0.50;99.90;;;;;;4988271;28;20125;-71
2022/03/04 08:01:26;;;;;;;46.28;24.90;;;-0.60;99.90;;;;;;4983629;28;20088;-71
2022/03/04 08:03:52;;;;;;;39.35;23.65;;;-0.60;99.90;;;;;;4986465;28;20060;-70
2022/03/04 08:06:18;;;;;;;44.20;26.58;;;-0.60;99.90;;;;;;4988485;28;20066;-70
2022/03/04 08:08:43;;;;;;;42.90;25.40;;;-0.60;99.90;;;;;;5002886;28;20060;-71
2022/03/04 08:11:12;;;;;;;38.08;23.55;;;-0.60;99.90;;;;;;4994231;28;20137;-69
2022/03/04 08:13:37;;;;;;;41.20;24.30;;;-0.60;99.90;;;;;;4985861;28;20142;-71
2022/03/04 08:16:03;;;;;;;40.35;24.52;;;-0.50;99.90;;;;;;4989747;28;20645;-71
2022/03/04 08:18:29;;;;;;;43.08;25.30;;;-0.40;99.90;;;;;;4988649;28;20065;-70
2022/03/04 08:20:54;;;;;;;45.60;25.20;;;-0.40;99.90;;;;;;4992391;28;20181;-70
2022/03/04 08:23:20;;;;;;;40.83;25.60;;;-0.20;99.90;;;;;;4990826;28;20049;-70
2022/03/04 08:25:46;;;;;;;39.85;25.30;;;-0.20;99.90;;;;;;5006247;28;20061;-70
2022/03/04 08:28:12;;;;;;;38.42;24.45;;;-0.10;99.90;;;;;;4991345;28;20042;-69
2022/03/04 08:30:38;;;;;;;40.40;24.27;;;0.00;99.90;;;;;;4992322;28;20124;-70
2022/03/04 08:33:04;;;;;;;36.45;23.40;;;0.00;99.90;;;;;;4989441;28;20477;-69
2022/03/04 08:35:30;;;;;;;33.15;20.40;;;0.10;99.90;;;;;;4989709;28;20421;-72
2022/03/04 08:37:56;;;;;;;34.83;21.95;;;0.20;99.90;;;;;;4990044;28;20034;-70
2022/03/04 08:40:22;;;;;;;28.27;19.88;;;0.30;99.90;;;;;;4989130;28;20053;-70
2022/03/04 08:42:48;;;;;;;35.53;21.50;;;0.30;99.90;;;;;;5009018;28;20184;-70
2022/03/04 08:45:15;;;;;;;37.22;22.65;;;0.20;99.90;;;;;;4986274;28;20441;-70
2022/03/04 08:47:44;;;;;;;31.27;21.58;;;0.20;99.90;;;;;;4992729;28;20053;-70
2022/03/04 08:50:12;;;;;;;33.33;22.15;;;0.20;99.90;;;;;;4988133;28;20145;-70
2022/03/04 08:52:38;;;;;;;33.00;22.90;;;0.20;99.90;;;;;;4971480;28;20160;-70
2022/03/04 08:55:07;;;;;;;33.95;23.05;;;0.20;99.90;;;;;;4991671;28;20049;-70
2022/03/04 08:57:34;;;;;;;37.25;23.33;;;0.30;99.90;;;;;;4989652;28;20065;-70
2022/03/04 09:00:00;;;;;;;33.20;23.17;;;0.30;99.90;;;;;;5004892;28;20062;-70
2022/03/04 09:02:26;;;;;;;37.92;22.60;;;0.40;99.90;;;;;;4987764;28;20057;-70
2022/03/04 09:04:52;;;;;;;37.45;23.90;;;0.50;99.90;;;;;;4986925;28;20054;-70
2022/03/04 09:07:18;;;;;;;30.23;22.80;;;0.60;99.90;;;;;;4989768;28;20572;-69
2022/03/04 09:09:44;;;;;;;32.65;22.60;;;0.60;99.90;;;;;;5012493;28;20052;-69
2022/03/04 09:12:10;;;;;;;35.03;23.27;;;0.60;99.90;;;;;;4988481;28;20046;-69
2022/03/04 09:14:36;;;;;;;27.05;20.30;;;0.80;99.90;;;;;;4985632;28;20509;-69
2022/03/04 09:17:02;;;;;;;27.20;20.23;;;0.90;99.90;;;;;;5007915;28;20046;-69
2022/03/04 09:19:30;;;;;;;27.35;20.17;;;1.10;99.90;;;;;;5010548;28;20037;-69
2022/03/04 09:21:56;;;;;;;27.40;19.58;;;1.10;99.90;;;;;;4992584;28;20058;-69
2022/03/04 09:24:23;;;;;;;29.83;21.00;;;1.10;99.90;;;;;;5001972;28;20042;-69
2022/03/04 09:26:49;;;;;;;27.33;19.67;;;1.00;99.90;;;;;;4991965;28;20125;-69
2022/03/04 09:29:15;;;;;;;27.40;19.90;;;1.00;99.90;;;;;;4986696;28;20487;-70
2022/03/04 09:31:41;;;;;;;28.65;20.15;;;1.10;99.90;;;;;;4991443;28;20085;-69
2022/03/04 09:34:07;;;;;;;28.50;20.65;;;1.20;99.90;;;;;;4983691;28;20125;-69
2022/03/04 09:36:33;;;;;;;27.67;20.55;;;1.40;99.90;;;;;;4988651;28;20447;-69
2022/03/04 09:38:59;;;;;;;25.80;19.70;;;1.50;99.90;;;;;;5001207;28;20133;-69
2022/03/04 09:41:25;;;;;;;27.08;19.85;;;1.60;99.90;;;;;;4992213;28;20138;-69
2022/03/04 09:43:54;;;;;;;28.60;20.58;;;1.50;99.90;;;;;;5002055;28;20405;-69
2022/03/04 09:46:23;;;;;;;26.88;19.40;;;1.40;99.90;;;;;;5002549;28;20058;-69
2022/03/04 09:48:50;;;;;;;29.40;21.80;;;1.30;99.90;;;;;;4986626;28;20100;-69
2022/03/04 09:51:16;;;;;;;27.10;20.20;;;1.10;99.90;;;;;;4996740;28;20081;-69
2022/03/04 09:53:43;;;;;;;27.95;19.90;;;1.00;99.90;;;;;;5006738;28;20462;-69
2022/03/04 09:56:09;;;;;;;29.38;20.60;;;1.00;99.90;;;;;;4990509;28;20073;-69
2022/03/04 09:58:37;;;;;;;31.92;21.27;;;1.00;99.90;;;;;;5005406;28;20379;-69
2022/03/04 10:01:09;;;;;;;26.80;18.92;;;1.10;99.90;;;;;;5008733;28;20128;-69
2022/03/04 10:03:34;;;;;;;27.60;20.42;;;1.40;99.90;;;;;;5006036;28;20062;-69
2022/03/04 10:06:00;;;;;;;26.52;18.83;;;1.50;99.90;;;;;;4993123;28;20132;-69
2022/03/04 10:08:26;;;;;;;32.28;21.48;;;1.60;99.90;;;;;;4981419;28;20509;-69
2022/03/04 10:10:54;;;;;;;25.65;19.10;;;1.60;99.90;;;;;;5004007;28;20100;-69
2022/03/04 10:13:42;;;;;;;25.73;19.95;;;1.70;99.90;;;;;;5012831;28;20117;-67
2022/03/04 10:16:08;;;;;;;27.42;18.58;;;1.60;99.90;;;;;;4987372;28;20320;-68
2022/03/04 10:18:33;;;;;;;26.33;20.40;;;1.50;99.90;;;;;;4985787;28;20066;-68
2022/03/04 10:20:59;;;;;;;28.52;20.75;;;1.50;99.90;;;;;;4988383;28;20135;-67
2022/03/04 10:23:27;;;;;;;28.00;19.55;;;1.50;99.90;;;;;;5006290;28;20059;-67
2022/03/04 10:25:56;;;;;;;28.33;19.05;;;1.50;99.90;;;;;;4980949;28;20061;-68
2022/03/04 10:28:24;;;;;;;29.42;20.52;;;1.60;99.90;;;;;;4992109;28;20478;-68
2022/03/04 10:30:52;;;;;;;33.45;22.30;;;1.70;99.90;;;;;;4982410;28;20537;-68
2022/03/04 10:33:26;;;;;;;29.55;20.75;;;1.90;99.90;;;;;;5007414;28;20112;-67
2022/03/04 10:36:11;;;;;;;27.70;20.02;;;2.00;99.90;;;;;;4989397;28;20057;-68
2022/03/04 10:38:39;;;;;;;27.20;19.33;;;2.10;99.90;;;;;;5008390;28;20041;-68
2022/03/04 10:41:29;;;;;;;28.17;20.77;;;2.20;99.90;;;;;;4995194;28;20058;-68
2022/03/04 10:43:56;;;;;;;27.65;20.90;;;2.50;99.90;;;;;;4994483;28;20061;-68
2022/03/04 10:46:22;;;;;;;32.03;21.85;;;2.50;99.90;;;;;;4985296;28;20054;-68
2022/03/04 10:48:57;;;;;;;28.40;19.95;;;3.00;99.90;;;;;;4993096;28;20054;-69
2022/03/04 10:51:38;;;;;;;28.55;21.08;;;4.40;99.90;;;;;;5004596;28;20069;-69
2022/03/04 10:54:30;;;;;;;25.20;20.80;;;5.20;99.90;;;;;;5005581;28;20046;-69
2022/03/04 10:56:56;;;;;;;29.17;20.65;;;5.10;99.90;;;;;;4999252;28;20045;-68
2022/03/04 10:59:23;;;;;;;25.95;20.45;;;4.70;99.90;;;;;;4993684;28;20203;-69
2022/03/04 11:01:50;;;;;;;26.02;20.00;;;4.50;99.90;;;;;;4994100;28;20050;-69
2022/03/04 11:04:18;;;;;;;25.30;20.45;;;5.40;99.90;;;;;;4958222;28;20155;-69
2022/03/04 11:06:45;;;;;;;23.65;19.45;;;6.30;99.90;;;;;;5003088;28;20100;-69
2022/03/04 11:09:16;;;;;;;25.42;20.65;;;6.30;97.70;;;;;;4994688;28;20052;-69
2022/03/04 11:11:43;;;;;;;24.05;20.33;;;6.60;97.40;;;;;;4989418;28;20058;-68
2022/03/04 11:14:13;;;;;;;26.23;20.45;;;7.20;96.90;;;;;;4992934;28;20272;-69
2022/03/04 11:16:40;;;;;;;23.17;18.92;;;7.60;95.00;;;;;;5001029;28;20050;-69
2022/03/04 11:19:09;;;;;;;23.05;19.42;;;7.80;94.90;;;;;;5010217;28;20054;-69
2022/03/04 11:21:35;;;;;;;22.33;19.88;;;8.30;93.90;;;;;;5007099;28;20535;-69
2022/03/04 11:24:02;;;;;;;23.17;19.17;;;8.80;93.00;;;;;;5012046;28;20029;-69
2022/03/04 11:26:31;;;;;;;22.13;19.77;;;9.20;92.50;;;;;;4989110;28;20140;-69
2022/03/04 11:28:58;;;;;;;22.98;20.17;;;9.30;90.60;;;;;;4998735;28;20057;-69
2022/03/04 11:31:27;;;;;;;23.05;19.33;;;9.70;90.00;;;;;;4986770;28;20064;-70
2022/03/04 11:33:56;;;;;;;22.88;19.40;;;10.10;86.80;;;;;;5006768;28;20041;-70
2022/03/04 11:36:29;;;;;;;22.85;20.45;;;10.70;86.00;;;;;;5006246;28;20050;-70
2022/03/04 11:39:02;;;;;;;22.15;19.10;;;10.90;82.90;;;;;;5011252;28;20052;-70
2022/03/04 11:41:31;;;;;;;21.45;19.27;;;11.20;78.80;;;;;;5006240;28;20116;-70
2022/03/04 11:44:17;;;;;;;22.92;20.63;;;11.10;79.20;;;;;;5013023;28;20038;-70
2022/03/04 11:46:46;;;;;;;20.92;18.75;;;10.90;77.30;;;;;;5009229;28;20047;-70
2022/03/04 11:49:34;;;;;;;21.98;19.70;;;11.00;76.40;;;;;;5009420;28;20140;-70
2022/03/04 11:52:11;;;;;;;21.02;18.80;;;10.90;75.60;;;;;;4987851;28;20058;-70
2022/03/04 11:55:04;;;;;;;20.33;18.33;;;10.80;76.30;;;;;;5009359;28;20088;-70
2022/03/04 11:57:34;;;;;;;19.65;17.63;;;10.70;74.60;;;;;;4988143;28;20045;-69
2022/03/04 12:00:12;;;;;;;19.48;17.35;;;10.60;72.60;;;;;;5011642;28;20060;-70
2022/03/04 12:02:46;;;;;;;19.35;17.38;;;10.80;71.60;;;;;;5003144;28;20578;-70
2022/03/04 12:05:17;;;;;;;;;;;10.90;70.30;;;;;;4995612;28;20549;-70
2022/03/04 12:07:45;;;;;;;20.15;17.17;;;11.10;68.30;;;;;;4992716;28;19917;-69
2022/03/04 12:10:12;;;;;;;20.88;17.35;;;11.30;70.60;;;;;;4989561;28;20431;-70
2022/03/04 12:12:39;;;;;;;20.42;18.23;;;11.50;69.20;;;;;;4992924;28;20112;-69
2022/03/04 12:15:17;;;;;;;19.33;17.23;;;11.20;68.90;;;;;;5007387;28;20104;-69
2022/03/04 12:18:05;;;;;;;17.13;15.35;;;11.20;68.20;;;;;;5007593;28;20042;-69
2022/03/04 12:20:53;;;;;;;17.10;15.27;;;11.10;65.90;;;;;;5007319;28;20457;-69
2022/03/04 12:23:39;;;;;;;17.20;14.60;;;11.20;65.60;;;;;;4976812;28;20145;-69
2022/03/04 12:26:05;;;;;;;19.30;16.70;;;11.40;64.70;;;;;;5004668;28;20521;-69
2022/03/04 12:28:45;;;;;;;16.52;14.70;;;11.20;64.10;;;;;;5006392;28;20047;-69
2022/03/04 12:31:18;;;;;;;16.10;14.27;;;10.70;65.40;;;;;;4992971;28;20575;-69